Time;durP1;ratioP1;P1;durP2;ratioP2;P2;SDS_P1;SDS_P2;PMS_P1;PMS_P2;Temp;Humidity;BMP_temperature;BMP_pressure;BME280_temperature;BME280_humidity;BME280_pressure;Samples;Min_cycle;Max_cycle;Signal;HPM_P1;HPM_P2
2022/10/11 00:02:07;;;;;;;19.52;3.00;;;;;;;;;;2317754;58;21606;-75
2022/10/11 00:04:34;;;;;;;15.68;2.55;;;;;;;;;;2318532;58;21115;-74
2022/10/11 00:07:01;;;;;;;10.73;2.30;;;;;;;;;;2317640;58;21112;-75
2022/10/11 00:09:28;;;;;;;13.15;2.55;;;;;;;;;;2318284;58;21056;-76
2022/10/11 00:11:55;;;;;;;24.35;3.72;;;;;;;;;;2317628;58;21051;-75
2022/10/11 00:14:22;;;;;;;17.45;2.50;;;;;;;;;;2318250;58;21558;-75
2022/10/11 00:16:49;;;;;;;10.23;2.83;;;;;;;;;;2559372;54;21677;-75
2022/10/11 00:19:16;;;;;;;16.42;3.37;;;;;;;;;;2559504;53;21083;-76
2022/10/11 00:21:43;;;;;;;15.82;3.50;;;;;;;;;;2317249;58;21625;-76
2022/10/11 00:24:11;;;;;;;12.43;2.65;;;;;;;;;;2317391;58;21057;-75
2022/10/11 00:26:38;;;;;;;16.20;2.62;;;;;;;;;;2318078;58;21040;-74
2022/10/11 00:29:05;;;;;;;12.20;3.28;;;;;;;;;;2318520;58;21044;-75
2022/10/11 00:31:32;;;;;;;12.80;3.10;;;;;;;;;;2318001;58;21200;-75
2022/10/11 00:33:59;;;;;;;11.18;2.75;;;;;;;;;;2318345;58;21056;-75
2022/10/11 00:36:27;;;;;;;13.73;2.42;;;;;;;;;;2558015;54;21032;-76
2022/10/11 00:38:54;;;;;;;10.18;2.90;;;;;;;;;;2318118;58;21115;-76
2022/10/11 00:41:21;;;;;;;9.82;2.55;;;;;;;;;;2318133;58;21056;-76
2022/10/11 00:43:48;;;;;;;5.35;2.10;;;;;;;;;;2318021;58;21167;-76
2022/10/11 00:46:29;;;;;;;7.45;2.80;;;;;;;;;;2318473;58;21072;-76
2022/10/11 00:48:59;;;;;;;16.08;2.80;;;;;;;;;;2318796;58;21100;-75
2022/10/11 00:51:32;;;;;;;11.52;2.22;;;;;;;;;;2558665;54;21693;-75
2022/10/11 00:54:00;;;;;;;8.57;2.35;;;;;;;;;;2317686;58;21051;-76
2022/10/11 00:56:30;;;;;;;12.32;2.97;;;;;;;;;;2318451;58;21567;-75
2022/10/11 00:58:58;;;;;;;16.90;4.10;;;;;;;;;;2317568;58;21119;-75
2022/10/11 01:01:25;;;;;;;8.35;2.58;;;;;;;;;;2317986;58;21056;-75
2022/10/11 01:03:52;;;;;;;10.70;2.37;;;;;;;;;;2318277;58;21622;-76
2022/10/11 01:06:19;;;;;;;12.20;2.92;;;;;;;;;;2559477;53;21043;-76
2022/10/11 01:08:46;;;;;;;8.60;2.97;;;;;;;;;;2317247;58;21139;-75
2022/10/11 01:11:14;;;;;;;7.15;1.80;;;;;;;;;;2318027;58;21696;-75
2022/10/11 01:13:46;;;;;;;14.35;3.37;;;;;;;;;;2317915;58;21606;-76
2022/10/11 01:16:16;;;;;;;8.95;2.50;;;;;;;;;;2318483;58;21630;-76
2022/10/11 01:18:47;;;;;;;7.15;1.90;;;;;;;;;;2318884;58;21119;-75
2022/10/11 01:21:17;;;;;;;14.90;2.90;;;;;;;;;;2318059;58;22262;-75
2022/10/11 01:23:57;;;;;;;9.70;3.25;;;;;;;;;;2558703;53;21550;-75
2022/10/11 01:26:49;;;;;;;19.73;3.92;;;;;;;;;;2317277;58;21127;-75
2022/10/11 01:29:21;;;;;;;7.93;2.37;;;;;;;;;;2287205;58;22236;-75
2022/10/11 01:31:51;;;;;;;9.45;2.42;;;;;;;;;;2558094;54;21139;-73
2022/10/11 01:34:25;;;;;;;8.80;2.40;;;;;;;;;;2318871;58;21028;-76
2022/10/11 01:36:56;;;;;;;12.32;3.08;;;;;;;;;;2318370;58;21170;-75
2022/10/11 01:39:28;;;;;;;11.95;2.70;;;;;;;;;;2559884;54;21131;-74
2022/10/11 01:41:56;;;;;;;12.02;2.85;;;;;;;;;;2557880;54;21140;-75
2022/10/11 01:44:24;;;;;;;14.85;4.12;;;;;;;;;;2317468;58;21072;-75
2022/10/11 01:46:51;;;;;;;11.40;2.97;;;;;;;;;;2318436;58;21111;-76
2022/10/11 01:49:18;;;;;;;16.33;3.25;;;;;;;;;;2559707;54;21645;-75
2022/10/11 01:51:46;;;;;;;12.40;3.17;;;;;;;;;;2317551;58;21064;-76
2022/10/11 01:54:29;;;;;;;12.65;3.50;;;;;;;;;;2317923;58;21622;-73
2022/10/11 01:57:15;;;;;;;13.30;3.50;;;;;;;;;;2318385;58;21198;-75
2022/10/11 01:59:51;;;;;;;7.65;2.62;;;;;;;;;;2559198;54;21558;-75
2022/10/11 02:02:27;;;;;;;10.60;2.83;;;;;;;;;;2318190;58;21064;-74
2022/10/11 02:04:56;;;;;;;15.32;3.03;;;;;;;;;;2317974;58;21048;-75
2022/10/11 02:07:25;;;;;;;13.73;2.37;;;;;;;;;;2318262;58;21063;-75
2022/10/11 02:09:56;;;;;;;14.82;3.05;;;;;;;;;;2318498;58;21131;-76
2022/10/11 02:12:26;;;;;;;11.77;2.45;;;;;;;;;;2317735;58;21604;-75
2022/10/11 02:14:54;;;;;;;20.52;4.00;;;;;;;;;;2318568;58;21043;-75
2022/10/11 02:17:25;;;;;;;8.90;3.05;;;;;;;;;;2318326;58;21044;-75
2022/10/11 02:19:53;;;;;;;9.35;3.03;;;;;;;;;;2318525;58;21622;-75
2022/10/11 02:22:22;;;;;;;7.90;2.80;;;;;;;;;;2558397;54;21400;-74
2022/10/11 02:24:50;;;;;;;5.25;2.53;;;;;;;;;;2318298;58;21071;-76
2022/10/11 02:27:19;;;;;;;12.20;3.40;;;;;;;;;;2318326;58;21048;-75
2022/10/11 02:29:47;;;;;;;9.07;2.50;;;;;;;;;;2318107;58;21564;-75
2022/10/11 02:32:15;;;;;;;9.43;2.75;;;;;;;;;;2317691;58;21657;-76
2022/10/11 02:34:44;;;;;;;18.12;2.53;;;;;;;;;;2317709;58;21120;-75
2022/10/11 02:37:16;;;;;;;14.35;2.80;;;;;;;;;;2318798;58;21123;-75
2022/10/11 02:39:46;;;;;;;15.35;2.87;;;;;;;;;;2318772;58;21111;-74
2022/10/11 02:42:15;;;;;;;9.98;2.75;;;;;;;;;;2318116;58;21048;-75
2022/10/11 02:44:44;;;;;;;20.75;3.05;;;;;;;;;;2318740;58;21143;-76
2022/10/11 02:47:12;;;;;;;12.30;3.37;;;;;;;;;;2318738;58;21119;-76
2022/10/11 02:49:39;;;;;;;11.18;2.67;;;;;;;;;;2317131;58;21597;-75
2022/10/11 02:52:06;;;;;;;15.00;3.22;;;;;;;;;;2318303;58;21072;-74
2022/10/11 02:54:33;;;;;;;6.68;2.65;;;;;;;;;;2317204;58;21064;-76
2022/10/11 02:57:00;;;;;;;15.10;3.20;;;;;;;;;;2318756;58;21080;-74
2022/10/11 02:59:27;;;;;;;9.35;2.62;;;;;;;;;;2318142;58;21052;-75
2022/10/11 03:01:54;;;;;;;14.98;2.70;;;;;;;;;;2318047;58;21099;-76
2022/10/11 03:04:21;;;;;;;11.40;2.53;;;;;;;;;;2317399;58;21060;-76
2022/10/11 03:06:48;;;;;;;13.10;3.08;;;;;;;;;;2318041;58;21185;-76
2022/10/11 03:09:15;;;;;;;14.70;3.45;;;;;;;;;;2318078;58;21065;-74
2022/10/11 03:11:42;;;;;;;15.18;3.70;;;;;;;;;;2559168;53;21050;-75
2022/10/11 03:14:09;;;;;;;12.85;3.05;;;;;;;;;;2318505;58;21641;-74
2022/10/11 03:16:36;;;;;;;11.63;2.78;;;;;;;;;;2317783;58;21056;-75
2022/10/11 03:19:03;;;;;;;15.30;3.45;;;;;;;;;;2318201;58;21043;-75
2022/10/11 03:21:30;;;;;;;14.15;2.95;;;;;;;;;;2317321;58;21044;-75
2022/10/11 03:23:57;;;;;;;10.35;3.00;;;;;;;;;;2559318;53;21527;-75
2022/10/11 03:26:24;;;;;;;7.32;2.92;;;;;;;;;;2318538;58;21059;-74
2022/10/11 03:28:51;;;;;;;13.60;2.95;;;;;;;;;;2318654;58;21128;-76
2022/10/11 03:31:19;;;;;;;8.05;2.65;;;;;;;;;;2317046;58;21617;-76
2022/10/11 03:33:46;;;;;;;12.63;3.17;;;;;;;;;;2315905;58;21056;-75
2022/10/11 03:36:13;;;;;;;9.48;2.15;;;;;;;;;;2317802;58;21068;-75
2022/10/11 03:38:41;;;;;;;8.73;3.30;;;;;;;;;;2558897;53;21071;-73
2022/10/11 03:41:08;;;;;;;10.00;2.45;;;;;;;;;;2557121;54;21515;-75
2022/10/11 03:43:35;;;;;;;11.40;2.70;;;;;;;;;;2318339;58;21381;-75
2022/10/11 03:46:02;;;;;;;8.52;3.00;;;;;;;;;;2318226;58;21054;-75
2022/10/11 03:48:29;;;;;;;13.85;2.80;;;;;;;;;;2315760;58;21147;-76
2022/10/11 03:50:56;;;;;;;18.98;2.92;;;;;;;;;;2556771;53;21056;-76
2022/10/11 03:53:23;;;;;;;15.10;3.08;;;;;;;;;;2316672;58;21158;-76
2022/10/11 03:55:52;;;;;;;10.93;3.28;;;;;;;;;;2318405;58;21135;-74
2022/10/11 03:58:20;;;;;;;12.20;4.05;;;;;;;;;;2317875;58;21111;-77
2022/10/11 04:00:47;;;;;;;10.90;3.45;;;;;;;;;;2316689;58;21048;-78
2022/10/11 04:03:14;;;;;;;13.80;3.30;;;;;;;;;;2559369;54;21372;-77
2022/10/11 04:05:41;;;;;;;16.60;3.35;;;;;;;;;;2557171;53;21115;-77
2022/10/11 04:08:08;;;;;;;10.98;3.53;;;;;;;;;;2314764;58;21067;-78
2022/10/11 04:10:35;;;;;;;12.80;3.55;;;;;;;;;;2317290;58;21067;-79
2022/10/11 04:13:02;;;;;;;9.65;2.28;;;;;;;;;;2317189;58;21111;-75
2022/10/11 04:15:29;;;;;;;16.00;4.05;;;;;;;;;;2317659;58;21068;-77
2022/10/11 04:17:56;;;;;;;19.20;4.18;;;;;;;;;;2317143;58;21084;-75
2022/10/11 04:20:23;;;;;;;14.02;3.00;;;;;;;;;;2317141;58;21123;-78
2022/10/11 04:22:50;;;;;;;12.05;2.80;;;;;;;;;;2316071;58;21119;-76
2022/10/11 04:25:17;;;;;;;14.93;2.72;;;;;;;;;;2316504;58;21056;-77
2022/10/11 04:27:44;;;;;;;14.75;3.30;;;;;;;;;;2318146;58;21068;-75
2022/10/11 04:30:13;;;;;;;14.93;3.78;;;;;;;;;;2318337;58;21107;-75
2022/10/11 04:32:40;;;;;;;12.37;2.70;;;;;;;;;;2315606;58;21123;-78
2022/10/11 04:35:07;;;;;;;18.08;3.37;;;;;;;;;;2558815;53;21562;-77
2022/10/11 04:37:34;;;;;;;20.77;3.60;;;;;;;;;;2318386;58;21052;-76
2022/10/11 04:40:01;;;;;;;14.63;2.90;;;;;;;;;;2318314;58;21213;-73
2022/10/11 04:42:28;;;;;;;16.20;3.15;;;;;;;;;;2557983;54;21618;-74
2022/10/11 04:44:55;;;;;;;11.15;2.72;;;;;;;;;;2318407;58;21052;-74
2022/10/11 04:47:22;;;;;;;14.85;2.70;;;;;;;;;;2317840;58;21052;-73
2022/10/11 04:49:49;;;;;;;9.50;2.45;;;;;;;;;;2317374;58;21072;-74
2022/10/11 04:52:16;;;;;;;16.65;3.05;;;;;;;;;;2558440;54;21060;-73
2022/10/11 04:54:43;;;;;;;15.68;3.10;;;;;;;;;;2317985;58;21067;-75
2022/10/11 04:57:10;;;;;;;10.07;2.90;;;;;;;;;;2318703;58;21052;-74
2022/10/11 04:59:37;;;;;;;14.85;3.05;;;;;;;;;;2318445;58;21709;-73
2022/10/11 05:02:04;;;;;;;13.77;3.00;;;;;;;;;;2558049;54;21056;-74
2022/10/11 05:04:31;;;;;;;10.27;2.83;;;;;;;;;;2318202;58;21044;-74
2022/10/11 05:06:58;;;;;;;11.63;3.00;;;;;;;;;;2558417;53;21048;-74
2022/10/11 05:09:25;;;;;;;17.55;3.72;;;;;;;;;;2559171;53;21064;-74
2022/10/11 05:11:52;;;;;;;10.40;2.80;;;;;;;;;;2318379;58;21127;-76
2022/10/11 05:14:19;;;;;;;15.32;3.42;;;;;;;;;;2317887;58;21554;-74
2022/10/11 05:16:46;;;;;;;12.77;3.10;;;;;;;;;;2318160;58;21183;-73
2022/10/11 05:19:13;;;;;;;11.25;2.78;;;;;;;;;;2318403;58;21131;-74
2022/10/11 05:21:40;;;;;;;12.95;3.75;;;;;;;;;;2317798;58;21056;-74
2022/10/11 05:24:07;;;;;;;14.40;3.55;;;;;;;;;;2317075;58;21103;-76
2022/10/11 05:26:34;;;;;;;10.40;2.90;;;;;;;;;;2318037;58;21099;-77
2022/10/11 05:29:01;;;;;;;12.32;2.70;;;;;;;;;;2559263;54;21052;-75
2022/10/11 05:31:28;;;;;;;11.35;2.95;;;;;;;;;;2317039;58;21113;-74
2022/10/11 05:33:55;;;;;;;8.75;3.03;;;;;;;;;;2318332;58;21319;-77
2022/10/11 05:36:22;;;;;;;15.10;3.33;;;;;;;;;;2318497;58;21566;-75
2022/10/11 05:38:49;;;;;;;10.77;2.97;;;;;;;;;;2318693;58;21124;-74
2022/10/11 05:41:16;;;;;;;13.27;2.95;;;;;;;;;;2317610;58;21052;-75
2022/10/11 05:43:44;;;;;;;17.42;3.58;;;;;;;;;;2317747;58;21685;-74
2022/10/11 05:46:12;;;;;;;14.52;3.50;;;;;;;;;;2318220;58;21059;-75
2022/10/11 05:48:39;;;;;;;12.10;3.53;;;;;;;;;;2318587;58;21068;-77
2022/10/11 05:51:08;;;;;;;14.25;3.17;;;;;;;;;;2318517;58;21047;-74
2022/10/11 05:53:36;;;;;;;15.00;3.70;;;;;;;;;;2318581;58;21076;-74
2022/10/11 05:56:03;;;;;;;13.57;3.05;;;;;;;;;;2318640;58;21036;-75
2022/10/11 05:58:30;;;;;;;10.32;3.92;;;;;;;;;;2318542;58;21067;-74
2022/10/11 06:00:57;;;;;;;10.70;3.08;;;;;;;;;;2317567;58;21123;-74
2022/10/11 06:03:24;;;;;;;12.60;3.40;;;;;;;;;;2318539;58;21064;-75
2022/10/11 06:05:51;;;;;;;15.35;3.80;;;;;;;;;;2318468;58;21112;-74
2022/10/11 06:08:18;;;;;;;10.60;3.62;;;;;;;;;;2318565;58;21048;-74
2022/10/11 06:10:45;;;;;;;15.85;3.90;;;;;;;;;;2317883;58;21052;-74
2022/10/11 06:13:12;;;;;;;15.48;3.47;;;;;;;;;;2318771;58;21606;-77
2022/10/11 06:15:39;;;;;;;17.35;3.85;;;;;;;;;;2318250;58;21131;-74
2022/10/11 06:18:06;;;;;;;15.43;3.72;;;;;;;;;;2318457;58;21746;-78
2022/10/11 06:20:33;;;;;;;13.55;3.70;;;;;;;;;;2317992;58;21100;-75
2022/10/11 06:23:00;;;;;;;16.52;3.85;;;;;;;;;;2317153;58;21155;-74
2022/10/11 06:25:27;;;;;;;18.45;4.55;;;;;;;;;;2558753;53;21051;-74
2022/10/11 06:27:54;;;;;;;17.23;3.75;;;;;;;;;;2560135;53;21095;-74
2022/10/11 06:30:22;;;;;;;18.48;3.60;;;;;;;;;;2559744;53;21132;-74
2022/10/11 06:32:49;;;;;;;12.30;3.35;;;;;;;;;;2318389;58;21072;-74
2022/10/11 06:35:16;;;;;;;10.50;3.50;;;;;;;;;;2318229;58;21068;-74
2022/10/11 06:37:43;;;;;;;11.50;3.92;;;;;;;;;;2318119;58;21638;-74
2022/10/11 06:40:11;;;;;;;19.25;3.75;;;;;;;;;;2318395;58;21075;-77
2022/10/11 06:42:48;;;;;;;19.37;4.47;;;;;;;;;;2532385;52;74310;-78
2022/10/11 06:45:15;;;;;;;12.30;3.90;;;;;;;;;;2357457;57;21073;-79
2022/10/11 06:47:42;;;;;;;14.87;3.75;;;;;;;;;;2357316;57;21135;-79
2022/10/11 06:50:09;;;;;;;28.70;4.28;;;;;;;;;;2368018;56;21625;-80
2022/10/11 06:52:36;;;;;;;16.60;4.80;;;;;;;;;;2385789;56;21042;-79
2022/10/11 06:55:03;;;;;;;15.18;3.85;;;;;;;;;;2386229;56;21090;-80
2022/10/11 06:57:30;;;;;;;14.02;4.25;;;;;;;;;;2386477;56;21684;-79
2022/10/11 06:59:57;;;;;;;17.25;3.87;;;;;;;;;;2386183;56;21059;-79
2022/10/11 07:02:24;;;;;;;15.55;4.12;;;;;;;;;;2386186;56;21181;-80
2022/10/11 07:04:51;;;;;;;18.85;4.30;;;;;;;;;;2642051;52;21059;-80
2022/10/11 07:07:18;;;;;;;11.65;3.85;;;;;;;;;;2384672;56;21050;-80
2022/10/11 07:09:45;;;;;;;12.90;4.22;;;;;;;;;;2385045;56;21107;-80
2022/10/11 07:12:12;;;;;;;16.08;3.60;;;;;;;;;;2385512;56;21055;-80
2022/10/11 07:14:39;;;;;;;14.85;4.40;;;;;;;;;;2384668;56;21094;-81
2022/10/11 07:17:06;;;;;;;13.40;4.00;;;;;;;;;;2385486;56;21092;-80
2022/10/11 07:19:33;;;;;;;12.95;3.75;;;;;;;;;;2641061;52;21527;-79
2022/10/11 07:22:00;;;;;;;16.35;3.70;;;;;;;;;;2386191;56;21543;-80
2022/10/11 07:24:27;;;;;;;12.70;3.58;;;;;;;;;;2385654;56;21637;-79
2022/10/11 07:26:54;;;;;;;17.12;4.03;;;;;;;;;;2641146;52;21058;-80
2022/10/11 07:29:21;;;;;;;13.95;4.03;;;;;;;;;;2641561;52;21046;-81
2022/10/11 07:31:48;;;;;;;17.33;5.03;;;;;;;;;;2386309;56;21113;-80
2022/10/11 07:34:15;;;;;;;11.88;3.22;;;;;;;;;;2641881;52;21173;-80
2022/10/11 07:36:42;;;;;;;13.13;3.53;;;;;;;;;;2641879;52;21113;-80
2022/10/11 07:39:09;;;;;;;13.57;3.33;;;;;;;;;;2386905;56;21046;-81
2022/10/11 07:41:37;;;;;;;14.93;3.35;;;;;;;;;;2642116;52;21055;-80
2022/10/11 07:44:04;;;;;;;16.23;3.45;;;;;;;;;;2386473;56;21051;-80
2022/10/11 07:46:31;;;;;;;17.67;3.17;;;;;;;;;;2386172;56;21106;-80
2022/10/11 07:48:59;;;;;;;11.68;3.30;;;;;;;;;;2386786;56;21121;-80
2022/10/11 07:51:26;;;;;;;17.83;3.78;;;;;;;;;;2384425;56;21030;-80
2022/10/11 07:53:54;;;;;;;19.48;3.87;;;;;;;;;;2385951;56;21134;-79
2022/10/11 07:56:22;;;;;;;15.15;4.05;;;;;;;;;;2385646;56;21089;-81
2022/10/11 07:58:50;;;;;;;19.50;4.40;;;;;;;;;;2386120;56;21038;-80
2022/10/11 08:01:18;;;;;;;9.88;3.97;;;;;;;;;;2384410;56;21074;-80
2022/10/11 08:03:45;;;;;;;10.95;4.07;;;;;;;;;;2387071;56;21118;-81
2022/10/11 08:06:13;;;;;;;22.73;4.03;;;;;;;;;;2643536;52;21570;-80
2022/10/11 08:08:40;;;;;;;18.50;3.80;;;;;;;;;;2642890;52;21460;-81
2022/10/11 08:11:07;;;;;;;16.25;4.40;;;;;;;;;;2386921;56;21050;-81
2022/10/11 08:13:35;;;;;;;15.75;4.05;;;;;;;;;;2387622;56;21530;-80
2022/10/11 08:16:08;;;;;;;16.45;4.43;;;;;;;;;;2387422;56;21127;-81
2022/10/11 08:18:35;;;;;;;11.07;3.60;;;;;;;;;;2387782;56;21102;-81
2022/10/11 08:21:05;;;;;;;10.52;3.80;;;;;;;;;;2387522;56;21562;-80
2022/10/11 08:23:32;;;;;;;15.25;4.07;;;;;;;;;;2386849;56;21063;-81
2022/10/11 08:25:59;;;;;;;12.60;3.75;;;;;;;;;;2386456;56;21038;-80
2022/10/11 08:28:26;;;;;;;12.15;3.58;;;;;;;;;;2644071;52;21050;-81
2022/10/11 08:30:54;;;;;;;14.93;3.30;;;;;;;;;;2643537;52;21134;-80
2022/10/11 08:33:22;;;;;;;12.70;3.80;;;;;;;;;;2388130;56;21036;-81
2022/10/11 08:35:50;;;;;;;14.00;3.95;;;;;;;;;;2643792;52;21098;-81
2022/10/11 08:38:18;;;;;;;13.62;3.33;;;;;;;;;;2644055;52;21125;-81
2022/10/11 08:40:49;;;;;;;18.55;3.33;;;;;;;;;;2387058;56;21574;-80
2022/10/11 08:43:22;;;;;;;16.25;3.58;;;;;;;;;;2644006;52;21047;-80
2022/10/11 08:45:50;;;;;;;14.60;3.05;;;;;;;;;;2643932;52;21023;-81
2022/10/11 08:48:18;;;;;;;16.20;3.22;;;;;;;;;;2642772;52;21093;-80
2022/10/11 08:50:47;;;;;;;11.88;3.33;;;;;;;;;;2387669;56;21110;-80
2022/10/11 08:53:19;;;;;;;12.37;3.22;;;;;;;;;;2387912;56;21094;-81
2022/10/11 08:55:49;;;;;;;13.90;3.62;;;;;;;;;;2388199;56;21051;-80
2022/10/11 08:58:18;;;;;;;11.57;2.60;;;;;;;;;;2644546;52;21146;-81
2022/10/11 09:00:46;;;;;;;18.30;4.22;;;;;;;;;;2387677;56;21034;-80
2022/10/11 09:03:19;;;;;;;15.55;4.00;;;;;;;;;;2387568;56;21078;-81
2022/10/11 09:05:51;;;;;;;22.13;3.67;;;;;;;;;;2387220;56;21055;-81
2022/10/11 09:08:21;;;;;;;13.98;3.97;;;;;;;;;;2388187;56;21062;-81
2022/10/11 09:10:55;;;;;;;16.52;3.00;;;;;;;;;;2388081;56;21094;-80
2022/10/11 09:13:33;;;;;;;10.85;2.65;;;;;;;;;;2387938;56;21046;-81
2022/10/11 09:16:05;;;;;;;8.70;2.55;;;;;;;;;;2644421;52;21063;-81
2022/10/11 09:18:41;;;;;;;10.10;2.15;;;;;;;;;;2387567;56;21054;-81
2022/10/11 09:21:16;;;;;;;10.23;2.72;;;;;;;;;;2642629;52;21066;-81
2022/10/11 09:24:06;;;;;;;11.20;2.35;;;;;;;;;;2387788;56;21090;-82
2022/10/11 09:26:36;;;;;;;11.73;2.90;;;;;;;;;;2644113;52;21033;-81
2022/10/11 09:29:06;;;;;;;8.65;2.75;;;;;;;;;;2387680;56;21094;-80
2022/10/11 09:31:33;;;;;;;12.37;2.90;;;;;;;;;;2387739;56;21106;-80
2022/10/11 09:34:06;;;;;;;6.65;2.25;;;;;;;;;;2387405;56;21047;-80
2022/10/11 09:36:37;;;;;;;9.23;2.62;;;;;;;;;;2644001;52;21054;-80
2022/10/11 09:39:07;;;;;;;15.95;2.62;;;;;;;;;;2386700;56;21026;-81
2022/10/11 09:41:38;;;;;;;20.40;4.15;;;;;;;;;;2387815;56;21094;-81
2022/10/11 09:44:06;;;;;;;18.52;3.67;;;;;;;;;;2386449;56;21539;-80
2022/10/11 09:46:36;;;;;;;9.32;3.15;;;;;;;;;;2642717;52;21110;-81
2022/10/11 09:49:04;;;;;;;13.85;2.92;;;;;;;;;;2386886;56;21167;-80
2022/10/11 09:51:31;;;;;;;11.80;2.50;;;;;;;;;;2385538;56;21141;-81
2022/10/11 09:54:00;;;;;;;10.93;2.60;;;;;;;;;;2385073;56;21067;-81
2022/10/11 09:56:28;;;;;;;10.80;2.80;;;;;;;;;;2641095;52;21200;-81
2022/10/11 10:01:43;;;;;;;17.67;2.87;;;;;;;;;;2352031;57;22051;-75
2022/10/11 10:04:12;;;;;;;16.77;3.45;;;;;;;;;;2350512;56;21043;-74
2022/10/11 10:06:39;;;;;;;9.73;2.40;;;;;;;;;;2625526;52;21067;-75
2022/10/11 10:09:25;;;;;;;9.82;2.78;;;;;;;;;;2371871;56;21043;-75
2022/10/11 10:11:52;;;;;;;10.63;2.80;;;;;;;;;;2371689;56;21541;-75
2022/10/11 10:14:21;;;;;;;9.48;2.62;;;;;;;;;;2372641;56;21102;-74
2022/10/11 10:16:48;;;;;;;18.30;2.50;;;;;;;;;;2370902;56;21086;-74
2022/10/11 10:19:20;;;;;;;11.43;2.85;;;;;;;;;;2374638;56;21087;-74
2022/10/11 10:21:49;;;;;;;14.25;2.55;;;;;;;;;;2374727;56;21106;-75
2022/10/11 10:24:18;;;;;;;11.50;3.28;;;;;;;;;;2374458;56;21079;-74
2022/10/11 10:27:04;;;;;;;13.65;2.20;;;;;;;;;;2372601;56;21130;-75
2022/10/11 10:29:31;;;;;;;12.00;2.42;;;;;;;;;;2373504;56;21047;-74
2022/10/11 10:32:02;;;;;;;11.07;2.47;;;;;;;;;;2371685;56;21051;-74
2022/10/11 10:34:31;;;;;;;8.70;2.55;;;;;;;;;;2372841;56;21596;-74
2022/10/11 10:37:01;;;;;;;16.27;2.92;;;;;;;;;;2369420;56;21062;-75
2022/10/11 10:39:32;;;;;;;10.88;2.58;;;;;;;;;;2371350;56;21130;-75
2022/10/11 10:42:00;;;;;;;9.05;2.03;;;;;;;;;;2372163;56;21027;-74
2022/10/11 10:44:27;;;;;;;17.77;3.12;;;;;;;;;;2371734;56;21864;-75
2022/10/11 10:47:01;;;;;;;16.20;3.22;;;;;;;;;;2371040;56;22042;-75
2022/10/11 10:49:34;;;;;;;11.10;2.67;;;;;;;;;;2370838;56;21667;-74
2022/10/11 10:52:07;;;;;;;10.13;2.72;;;;;;;;;;2370559;56;21059;-77
2022/10/11 10:54:39;;;;;;;12.75;2.15;;;;;;;;;;2624382;52;21054;-76
2022/10/11 10:57:12;;;;;;;8.40;2.15;;;;;;;;;;2370925;56;21094;-77
2022/10/11 10:59:49;;;;;;;10.55;2.08;;;;;;;;;;2374094;56;21070;-75
2022/10/11 11:02:19;;;;;;;12.43;2.17;;;;;;;;;;2372616;56;21106;-76
2022/10/11 11:04:51;;;;;;;8.95;2.55;;;;;;;;;;2372669;56;21122;-77
2022/10/11 11:07:23;;;;;;;12.32;2.45;;;;;;;;;;2374016;56;21047;-76
2022/10/11 11:09:55;;;;;;;11.93;2.33;;;;;;;;;;2373445;56;21047;-77
2022/10/11 11:12:28;;;;;;;9.70;2.90;;;;;;;;;;2372603;56;21138;-75
2022/10/11 11:15:00;;;;;;;11.73;2.42;;;;;;;;;;2371884;56;21522;-75
2022/10/11 11:17:32;;;;;;;9.20;2.22;;;;;;;;;;2372477;56;21031;-75
2022/10/11 11:20:03;;;;;;;9.75;2.17;;;;;;;;;;2371878;56;21059;-76
2022/10/11 11:22:35;;;;;;;17.73;2.92;;;;;;;;;;2625761;52;21680;-75
2022/10/11 11:25:07;;;;;;;12.75;2.12;;;;;;;;;;2372970;56;21606;-75
2022/10/11 11:27:41;;;;;;;6.32;1.85;;;;;;;;;;2372984;56;21191;-75
2022/10/11 11:30:10;;;;;;;9.40;2.17;;;;;;;;;;2625998;52;21066;-75
2022/10/11 11:35:17;;;;;;;14.30;2.55;;;;;;;;;;2336073;57;22206;-75
2022/10/11 11:37:46;;;;;;;11.02;2.35;;;;;;;;;;2345524;57;21038;-75
2022/10/11 11:40:16;;;;;;;11.70;2.28;;;;;;;;;;2346713;57;22139;-74
2022/10/11 11:42:46;;;;;;;6.60;2.17;;;;;;;;;;2346578;57;21595;-75
2022/10/11 11:45:16;;;;;;;8.77;2.53;;;;;;;;;;2347073;57;21588;-74
2022/10/11 11:47:47;;;;;;;9.82;2.03;;;;;;;;;;2347352;57;21124;-75
2022/10/11 11:50:21;;;;;;;11.32;2.05;;;;;;;;;;2346937;57;21014;-74
2022/10/11 11:52:50;;;;;;;7.68;2.00;;;;;;;;;;2344795;57;21034;-75
2022/10/11 11:55:19;;;;;;;8.88;1.85;;;;;;;;;;2346051;57;21540;-80
2022/10/11 11:57:55;;;;;;;9.48;2.17;;;;;;;;;;2346228;57;21121;-75
2022/10/11 12:00:23;;;;;;;12.70;2.25;;;;;;;;;;2345580;57;21097;-75
2022/10/11 12:02:52;;;;;;;8.15;1.83;;;;;;;;;;2344476;57;21619;-74
2022/10/11 12:05:21;;;;;;;11.88;1.70;;;;;;;;;;2346089;57;21053;-76
2022/10/11 12:07:50;;;;;;;12.73;2.72;;;;;;;;;;2345656;57;21184;-75
2022/10/11 12:10:23;;;;;;;7.25;1.40;;;;;;;;;;2345894;57;21536;-75
2022/10/11 12:13:01;;;;;;;7.03;1.98;;;;;;;;;;2345577;57;21049;-76
2022/10/11 12:15:28;;;;;;;6.43;1.75;;;;;;;;;;2345394;57;21556;-77
2022/10/11 12:18:03;;;;;;;10.10;2.53;;;;;;;;;;2346051;57;21112;-75
2022/10/11 12:20:31;;;;;;;10.52;2.03;;;;;;;;;;2346215;57;21029;-74
2022/10/11 12:22:59;;;;;;;11.43;2.30;;;;;;;;;;2344382;57;21149;-77
2022/10/11 12:25:34;;;;;;;8.38;2.30;;;;;;;;;;2345079;57;21713;-75
2022/10/11 12:28:02;;;;;;;10.40;2.12;;;;;;;;;;2345902;57;21069;-75
2022/10/11 12:30:49;;;;;;;9.50;1.80;;;;;;;;;;2345981;57;21085;-75
2022/10/11 12:33:19;;;;;;;7.00;2.25;;;;;;;;;;2346908;57;21038;-74
2022/10/11 12:35:57;;;;;;;9.02;2.03;;;;;;;;;;2346708;57;21034;-75
2022/10/11 12:38:25;;;;;;;10.68;2.17;;;;;;;;;;2346963;57;21104;-74
2022/10/11 12:40:53;;;;;;;5.55;1.60;;;;;;;;;;2346375;57;21568;-74
2022/10/11 12:43:25;;;;;;;7.70;1.50;;;;;;;;;;2346318;57;21109;-75
2022/10/11 12:45:52;;;;;;;13.10;2.78;;;;;;;;;;2346052;57;21113;-74
2022/10/11 12:48:33;;;;;;;10.27;2.08;;;;;;;;;;2345328;57;21100;-74
2022/10/11 12:51:04;;;;;;;8.73;2.28;;;;;;;;;;2345813;57;21133;-74
2022/10/11 12:53:51;;;;;;;8.07;1.92;;;;;;;;;;2345470;57;21045;-74
2022/10/11 12:56:24;;;;;;;6.57;1.83;;;;;;;;;;2344402;57;21122;-74
2022/10/11 12:58:50;;;;;;;;;;;;;;;;;;2347946;57;21176;-74
2022/10/11 13:01:21;;;;;;;6.43;1.70;;;;;;;;;;2343952;57;20102;-74
2022/10/11 13:03:59;;;;;;;7.37;2.05;;;;;;;;;;2344681;57;21061;-74
2022/10/11 13:06:28;;;;;;;8.88;1.70;;;;;;;;;;2344959;57;21073;-74
2022/10/11 13:08:56;;;;;;;8.75;1.83;;;;;;;;;;2343927;57;21678;-75
2022/10/11 13:11:27;;;;;;;7.30;2.10;;;;;;;;;;2344364;57;21109;-78
2022/10/11 13:13:55;;;;;;;8.93;1.90;;;;;;;;;;2344739;57;21097;-77
2022/10/11 13:16:23;;;;;;;7.03;1.60;;;;;;;;;;2343609;57;21053;-75
2022/10/11 13:18:54;;;;;;;9.80;2.30;;;;;;;;;;2592186;53;21086;-74
2022/10/11 13:21:26;;;;;;;16.75;2.85;;;;;;;;;;2344640;57;21045;-75
2022/10/11 13:23:56;;;;;;;8.35;2.05;;;;;;;;;;2344586;57;21584;-74
2022/10/11 13:26:23;;;;;;;6.03;1.90;;;;;;;;;;2590643;53;21120;-75
2022/10/11 13:28:52;;;;;;;7.28;1.67;;;;;;;;;;2591544;53;21109;-75
2022/10/11 13:31:19;;;;;;;8.27;2.35;;;;;;;;;;2591164;53;21038;-75
2022/10/11 13:33:46;;;;;;;6.90;2.03;;;;;;;;;;2344063;57;21599;-76
2022/10/11 13:36:16;;;;;;;7.03;2.35;;;;;;;;;;2344694;57;21045;-76
2022/10/11 13:38:50;;;;;;;6.68;1.70;;;;;;;;;;2344045;57;21156;-75
2022/10/11 13:41:17;;;;;;;9.10;1.95;;;;;;;;;;2345167;57;21041;-74
2022/10/11 13:43:44;;;;;;;9.38;2.10;;;;;;;;;;2345030;57;21129;-75
2022/10/11 13:46:16;;;;;;;7.03;1.85;;;;;;;;;;2344973;57;21113;-75
2022/10/11 13:48:43;;;;;;;10.30;2.03;;;;;;;;;;2345750;57;21139;-74
2022/10/11 13:51:15;;;;;;;7.80;2.37;;;;;;;;;;2591091;53;21065;-77
2022/10/11 13:53:57;;;;;;;9.43;2.30;;;;;;;;;;2345032;57;21080;-75
2022/10/11 13:56:24;;;;;;;5.87;1.58;;;;;;;;;;2345130;57;21108;-75
2022/10/11 13:58:53;;;;;;;7.32;1.70;;;;;;;;;;2345661;57;21627;-74
2022/10/11 14:01:21;;;;;;;14.60;2.53;;;;;;;;;;2344916;57;21525;-74
2022/10/11 14:03:52;;;;;;;9.80;1.95;;;;;;;;;;2345196;57;21061;-76
2022/10/11 14:06:19;;;;;;;11.45;2.75;;;;;;;;;;2344628;57;21113;-75
2022/10/11 14:08:48;;;;;;;9.02;2.60;;;;;;;;;;2345208;57;21034;-74
2022/10/11 14:11:15;;;;;;;8.68;1.70;;;;;;;;;;2343968;57;21113;-75
2022/10/11 14:13:43;;;;;;;12.73;3.35;;;;;;;;;;2344835;57;21042;-75
2022/10/11 14:16:11;;;;;;;7.15;2.65;;;;;;;;;;2344583;57;21109;-76
2022/10/11 14:18:41;;;;;;;9.52;1.98;;;;;;;;;;2342561;57;21084;-75
2022/10/11 14:21:23;;;;;;;5.97;1.73;;;;;;;;;;2343581;57;21045;-75
2022/10/11 14:23:51;;;;;;;8.00;2.37;;;;;;;;;;2344389;57;21042;-75
2022/10/11 14:26:18;;;;;;;9.25;2.22;;;;;;;;;;2341492;57;21384;-75
2022/10/11 14:28:46;;;;;;;8.82;2.15;;;;;;;;;;2344993;57;22010;-75
2022/10/11 14:31:13;;;;;;;10.55;2.22;;;;;;;;;;2345309;57;21050;-75
2022/10/11 14:33:40;;;;;;;10.18;2.30;;;;;;;;;;2345295;57;21033;-76
2022/10/11 14:36:08;;;;;;;10.38;2.15;;;;;;;;;;2346474;57;21183;-75
2022/10/11 14:38:35;;;;;;;8.93;2.10;;;;;;;;;;2346239;57;21093;-75
2022/10/11 14:41:02;;;;;;;12.80;2.30;;;;;;;;;;2345796;57;21361;-76
2022/10/11 14:43:29;;;;;;;9.63;2.28;;;;;;;;;;2592486;53;21643;-77
2022/10/11 14:45:56;;;;;;;11.07;2.55;;;;;;;;;;2593138;53;21053;-77
2022/10/11 14:48:23;;;;;;;9.95;2.55;;;;;;;;;;2346651;57;21050;-76
2022/10/11 14:50:52;;;;;;;9.65;1.70;;;;;;;;;;2346050;57;21121;-76